AirNav   Air Wisconsin pilot careers
 
 474 users online  

D74 Chorman Airport
Farmington, Delaware, USA

GOING TO FARMINGTON?


FAA INFORMATION EFFECTIVE 19 JULY 2018

Location

FAA Identifier: D74
Lat/Long: 38-50-58.3000N / 075-36-46.0000W
38-50.971667N / 075-36.766667W
38.8495278 / -75.6127778
(estimated)
Elevation: 66 ft. / 20.1 m (surveyed)
Variation: 11W (1990)
From city: 2 miles SW of FARMINGTON, DE
Time zone: UTC -4 (UTC -5 during Standard Time)
Zip code: 19950

Airport Operations

Airport use: Open to the public
Activation date: 10/1991
Control tower: no
ARTCC: WASHINGTON CENTER
FSS: MILLVILLE FLIGHT SERVICE STATION
NOTAMs facility: MIV (NOTAM-D service available)
Attendance: MON-FRI 0830-DUSK
Wind indicator: yes
Segmented circle: no
Lights: FOR LIRL RY 16/34 AND REIL RYS 16 & 34 CALL 302-349-5055 OR 645-9225.
Beacon: white-green (lighted land airport)
FOR ROTG BCN CALL 302-349-5055 OR 645-9225.

Airport Communications

CTAF: 122.9
WX ASOS at GED (15 nm SE): 118.375 (302-856-2927)

Nearby radio navigation aids

VOR radial/distance  VOR name  Freq  Var
ATRr286/18.9WATERLOO VOR/DME112.6009W
ENOr200/23.4SMYRNA VORTAC111.4009W
SBYr003/30.6SALISBURY VORTAC111.2012W

 
NDB name  Hdg/Dist  Freq  Var  ID
CAMBRIDGE056/27.135510WCGE -.-. --. .

Airport Services

Airframe service: MAJOR
Powerplant service: MAJOR

Runway Information

Runway 16/34

Dimensions: 3588 x 37 ft. / 1094 x 11 m
Surface: asphalt, in excellent condition
LARGE UNSEALED SURFACE CRACKS; ALLIGATOR PATCHES.
Runway edge lights: low intensity
RUNWAY 16  RUNWAY 34
Latitude: 38-51.242333N38-50.702500N
Longitude: 075-36.921500W075-36.613167W
Traffic pattern: leftleft
Markings: basic, in good conditionbasic, in good condition
Runway end identifier lights: yesyes
Obstructions: none24 ft. pole, 250 ft. from runway, 80 ft. right of centerline, 2:1 slope to clear

Airport Ownership and Management from official FAA records

Ownership: Privately-owned
Owner: ALLEN CHORMAN
30475 EAST MILL RUN
MILTON, DE 19968
Phone 302-645-9225
Manager: ALLEN CHORMAN
2057 NINE FT RD
GREENWOOD, DE 11952
Phone 302-349-5055

Airport Operational Statistics

Aircraft based on the field: 19
Single engine airplanes: 17
Multi engine airplanes: 2
    
Aircraft operations: avg 40/day *
90% transient general aviation
10% local general aviation
* for 12-month period ending 17 April 2018

Additional Remarks

AGRICULTURE SPRAYING ACTIVITY ON & INVOF ARPT.
LOADING PAD ADJACENT TO EAST SIDE RY 34.

Instrument Procedures

There are no published instrument procedures at D74.

Some nearby airports with instrument procedures:

KRJD - Ridgely Airpark (14 nm NW)
KGED - Delaware Coastal Airport (15 nm SE)
KDOV - Dover Air Force Base (18 nm N)
N06 - Laurel Airport (18 nm S)
KESN - Easton/Newnam Field Airport (21 nm W)
 
Loc | Ops | Rwys | IFR | FBO | Links
Com | Nav | Svcs | Stats | Notes


 
Area around D74 (Chorman Airport)
 
Road maps at: MapQuest Bing Google
 
Aerial photo
WARNING: Photo may not be current or correct
Aerial photo of D74 (Chorman Airport)
Photo by Chris Connor
Photo taken 09-Jun-2012
looking west.

Do you have a better or more recent aerial photo of Chorman Airport that you would like to share? If so, please send us your photo.

 
Sectional chart

 
Airport distance calculator
Flying to Chorman Airport? Find the distance to fly.

From to D74

Sunrise and sunset
Times for 19-Jul-2018
 Local
(UTC-4)
 Zulu
(UTC)
Morning civil twilight05:2309:23
Sunrise05:5409:54
Sunset20:2400:24
Evening civil twilight20:5500:55

Current date and time
Zulu (UTC)  19-Jul-2018 10:37:28
Local (UTC-4)  19-Jul-2018 06:37:28
 
METAR
KGED 
15nm SE 
190954Z AUTO 36004KT 10SM CLR 21/16 A3004 RMK AO2 SLP172 T02060161 $
KDOV 
17nm NE 
190956Z AUTO 36006KT 10SM CLR 17/14 A3004 RMK AO2 SLP176 T01720139 $
KESN 
21nm W 
190955Z 06005KT 10SM SCT120 19/14 A3008
KCGE 
27nm SW 
191015Z AUTO 03004KT 10SM CLR 20/15 A3004 RMK A01
TAF
KDOV 
17nm NE 
190800Z 1908/2014 01006KT 9999 FEW070 QNH3000INS BECMG 2010/2011 11006KT 4800 BR FEW045 QNH3013INS TX29/1920Z TN18/1910Z
NOTAMs
Click for the latest NOTAMs
NOTAMs are issued by the DoD/FAA and will open in a separate window not controlled by AirNav.

 

 
 

Would you like to see your business listed on this page?

 If your business provides an interesting product or service to pilots, flight crews, aircraft, or users of the Chorman Airport, you should consider listing it here.  To start the listing process, click on the button below
 
Add a business
 

Other Pages about Chorman Airport

Update a link
 
Copyright © AirNav, LLC. All rights reserved. Privacy Policy  Contact